Latest Weather Observations for Ferny Creek

IDV60801

Issued at 7:32 pm EST Sunday 20 August 2017 (issued every 30 minutes, with the page automatically refreshed every 10 minutes)

About weather observations | Map of weather stations | Latest weather observations for VIC | Other Formats
Station Details ID: 086266 Name: FERNY CREEK Lat: -37.87 Lon: 145.35 Height: 512.9 m
Data from the previous 72 hours. | See also: Recent months at Ferny Creek
Date/Time
EST
Temp
°C
App
Temp
°C
Dew
Point
°C
Rel
Hum
%
Delta-T
°C
Wind Press
QNH
hPa
Press
MSL
hPa
Rain since
9am
mm
Dir  Spd
km/h
Gust
km/h
Spd
kts
Gust
kts
20/07:30pm 4.6 2.4 1.1 78 1.4 ENE 2 2 1 1 1019.1 1019.7 0.0
20/07:00pm 4.7 2.8 0.7 75 1.6 CALM 0 0 0 0 1019.4 1020.0 0.0
20/06:30pm 4.9 2.9 -0.1 70 2.0 CALM 0 0 0 0 1019.6 1020.3 0.0
20/06:00pm 4.8 2.8 0.0 71 1.9 CALM 0 0 0 0 1019.4 1020.0 0.0
20/05:30pm 5.5 3.7 1.1 73 1.8 CALM 0 0 0 0 1019.3 1019.9 0.0
20/05:00pm 6.6 3.9 0.5 65 2.5 SE 4 6 2 3 1019.3 1019.9 0.0
20/04:30pm 7.5 4.8 0.0 59 3.0 E 4 7 2 4 1019.5 1020.2 0.0
20/04:00pm 7.2 4.6 0.9 64 2.6 ENE 4 7 2 4 1019.8 1020.5 0.0
20/03:30pm 7.5 5.4 1.6 66 2.5 ENE 2 6 1 3 1020.1 1020.8 0.0
20/03:00pm 6.4 4.6 0.9 68 2.2 CALM 0 0 0 0 1020.5 1021.2 0.0
20/02:30pm 6.6 4.8 1.5 70 2.1 CALM 0 0 0 0 1021.1 1021.7 0.0
20/02:00pm 6.7 4.9 1.2 68 2.3 CALM 0 4 0 2 1021.6 1022.3 0.0
20/01:30pm 6.9 4.7 1.2 67 2.4 S 2 4 1 2 1022.0 1022.7 0.0
20/01:00pm 6.6 4.3 0.7 66 2.4 WSW 2 4 1 2 1022.5 1023.2 0.0
20/12:30pm 6.5 4.0 1.4 70 2.1 NE 4 6 2 3 1023.1 1023.8 0.0
20/12:00pm 6.7 4.5 1.0 67 2.3 ENE 2 6 1 3 1023.7 1024.4 0.0
20/11:30am 6.6 4.4 1.3 69 2.2 E 2 7 1 4 1024.2 1024.9 0.0
20/11:00am 6.1 4.1 2.2 76 1.6 SSE 2 6 1 3 1024.6 1025.4 0.0
20/10:30am 6.2 4.4 3.4 82 1.2 NE 2 6 1 3 1025.0 1025.8 0.0
20/10:00am 5.0 3.0 2.5 84 1.0 SW 2 4 1 2 1025.5 1026.2 0.0
20/09:30am 6.7 4.9 3.5 80 1.4 ENE 2 4 1 2 1025.7 1026.4 0.0
20/09:00am 4.9 3.5 3.4 90 0.6 CALM 0 0 0 0 1025.8 1026.5 1.6
20/08:30am 4.1 2.6 3.1 93 0.4 CALM 0 0 0 0 1025.8 1026.5 1.6
20/08:00am 3.1 1.1 2.4 95 0.3 WSW 2 6 1 3 1025.7 1026.4 1.6
20/07:30am 2.8 0.4 2.2 96 0.2 WSW 4 6 2 3 1025.6 1026.3 1.6
20/07:00am 1.7 -0.5 1.0 95 0.3 WNW 2 4 1 2 1025.5 1026.2 1.6
20/06:30am 1.8 -0.4 1.2 96 0.2 WNW 2 4 1 2 1025.5 1026.2 1.6
20/06:00am 2.0 -0.2 1.3 95 0.3 WNW 2 4 1 2 1025.3 1026.0 1.6
20/05:30am 2.4 -0.1 1.7 95 0.3 WNW 4 4 2 2 1025.3 1026.0 1.6
20/05:00am 3.3 1.7 2.6 95 0.3 CALM 0 2 0 1 1025.2 1025.9 1.6
20/04:30am 2.6 0.9 1.7 94 0.4 CALM 0 2 0 1 1025.0 1025.8 1.6
20/04:00am 2.2 0.0 1.2 93 0.4 WNW 2 6 1 3 1025.2 1025.9 1.6
20/03:30am 2.7 0.6 1.4 91 0.5 WNW 2 6 1 3 1024.8 1025.6 1.6
20/03:00am 3.4 1.7 1.9 90 0.6 CALM 0 4 0 2 1025.2 1025.9 1.6
20/02:30am 3.5 1.9 2.2 91 0.5 CALM 0 2 0 1 1025.0 1025.8 1.6
20/02:00am 3.5 1.8 2.0 90 0.6 CALM 0 0 0 0 1025.0 1025.8 1.6
20/01:30am 3.5 1.9 2.2 91 0.5 CALM 0 0 0 0 1025.5 1026.2 1.6
20/01:00am 2.9 1.1 1.3 89 0.6 CALM 0 0 0 0 1025.8 1026.5 1.6
20/12:30am 2.8 1.0 1.0 88 0.7 CALM 0 2 0 1 1026.1 1026.9 1.6
20/12:00am 2.7 0.8 0.3 84 0.9 CALM 0 0 0 0 1026.2 1027.0 1.6
 
Date/Time
EST
Temp
°C
App
Temp
°C
Dew
Point
°C
Rel
Hum
%
Delta-T
°C
Wind Press
QNH
hPa
Press
MSL
hPa
Rain since
9am
mm
Dir  Spd
km/h
Gust
km/h
Spd
kts
Gust
kts
19/11:30pm 2.9 0.6 0.3 83 1.0 W 2 2 1 1 1026.1 1026.9 1.6
19/11:00pm 3.0 0.7 0.2 82 1.1 WSW 2 6 1 3 1026.2 1027.0 1.6
19/10:30pm 3.1 0.4 0.2 81 1.1 WSW 4 6 2 3 1026.2 1027.0 1.6
19/10:00pm 3.1 0.7 0.0 80 1.2 W 2 4 1 2 1026.2 1027.0 1.6
19/09:30pm 3.1 0.7 0.0 80 1.2 WSW 2 6 1 3 1026.1 1026.9 1.6
19/09:00pm 3.4 1.1 0.6 82 1.1 SSW 2 7 1 4 1026.1 1026.9 1.6
19/08:30pm 3.3 1.1 1.3 87 0.8 ESE 2 4 1 2 1026.0 1026.7 1.6
19/08:00pm 3.5 1.3 1.1 84 0.9 ESE 2 6 1 3 1025.9 1026.6 1.6
19/07:30pm 3.8 1.6 1.2 83 1.0 SE 2 7 1 4 1026.0 1026.7 1.6
19/07:00pm 3.9 1.8 1.6 85 0.9 SE 2 6 1 3 1026.1 1026.9 1.6
19/06:30pm 4.4 2.3 1.8 83 1.1 SE 2 4 1 2 1026.2 1027.0 1.6
19/06:00pm 4.8 2.7 2.0 82 1.1 SE 2 4 1 2 1025.8 1026.5 1.6
19/05:30pm 5.1 3.0 1.9 80 1.3 ESE 2 4 1 2 1025.8 1026.5 1.6
19/05:00pm 5.4 3.4 2.2 80 1.3 SE 2 6 1 3 1025.6 1026.3 1.6
19/04:30pm 5.8 3.4 1.9 76 1.6 SE 4 6 2 3 1025.3 1026.0 1.6
19/04:00pm 6.1 3.8 2.7 79 1.4 ESE 4 7 2 4 1025.2 1025.9 1.6
19/03:30pm 5.6 2.8 1.9 77 1.5 ESE 6 13 3 7 1025.2 1025.9 1.6
19/03:00pm 6.1 3.4 2.4 77 1.6 S 6 11 3 6 1025.2 1025.9 1.6
19/02:30pm 6.0 3.6 2.3 77 1.6 SSW 4 9 2 5 1025.2 1025.9 1.6
19/02:00pm 6.1 3.4 2.7 79 1.4 S 6 13 3 7 1025.0 1025.8 1.6
19/01:30pm 5.3 2.8 3.8 90 0.7 SW 6 13 3 7 1025.0 1025.8 1.6
19/01:00pm 5.5 3.0 3.5 87 0.9 SSW 6 15 3 8 1025.0 1025.8 1.4
19/12:30pm 5.7 3.2 3.7 87 0.9 SSE 6 13 3 7 1024.7 1025.5 1.4
19/12:00pm 5.0 2.5 3.8 92 0.5 ESE 6 13 3 7 1024.9 1025.7 1.4
19/11:30am 5.6 2.9 3.6 87 0.9 SE 7 13 4 7 1025.0 1025.8 0.8
19/11:00am 5.1 2.7 4.2 94 0.4 ESE 6 11 3 6 1025.2 1025.9 0.6
19/10:30am 4.2 1.6 3.2 93 0.4 ESE 6 13 3 7 1025.2 1025.9 0.6
19/10:00am 3.6 1.3 2.9 95 0.3 SSW 4 7 2 4 1024.8 1025.6 0.4
19/09:30am 3.5 1.6 2.6 94 0.4 SW 2 9 1 5 1024.7 1025.5 0.0
19/09:00am 3.5 1.6 2.8 95 0.3 SE 2 4 1 2 1024.2 1024.9 7.4
19/08:30am 3.2 0.9 2.5 95 0.3 SW 4 7 2 4 1023.8 1024.5 6.8
19/08:00am 2.6 0.2 1.9 95 0.3 W 4 13 2 7 1023.3 1024.0 6.4
19/07:30am 2.4 0.3 1.7 95 0.3 SW 2 4 1 2 1022.7 1023.5 6.0
19/07:00am 2.2 -0.7 1.5 95 0.3 SSE 6 15 3 8 1022.5 1023.2 5.8
19/06:30am 2.5 0.0 1.8 95 0.3 SE 4 9 2 5 1021.7 1022.4 5.2
19/06:00am 2.4 0.3 1.7 95 0.3 ESE 2 6 1 3 1021.2 1021.9 5.2
19/05:30am 2.9 0.1 2.3 96 0.2 ESE 6 11 3 6 1021.0 1021.6 5.2
19/05:00am 3.0 0.6 2.4 96 0.2 SW 4 9 2 5 1020.5 1021.2 5.0
19/04:30am 3.4 1.1 3.0 97 0.2 SSE 4 11 2 6 1020.3 1021.0 5.0
19/04:00am 3.1 1.2 2.7 97 0.2 W 2 9 1 5 1019.8 1020.5 5.0
19/03:30am 2.7 0.3 2.1 96 0.2 W 4 9 2 5 1019.7 1020.4 5.0
19/03:00am 2.4 -0.4 1.8 96 0.2 NNW 6 11 3 6 1019.5 1020.2 4.8
19/02:30am 3.2 1.3 2.8 97 0.2 WSW 2 7 1 4 1019.4 1020.0 4.4
19/02:00am 3.7 1.9 3.3 97 0.2 SSW 2 11 1 6 1019.4 1020.0 4.4
19/01:30am 3.8 1.2 3.4 97 0.2 W 6 11 3 6 1019.2 1019.8 4.4
19/01:00am 3.8 1.2 3.4 97 0.2 W 6 13 3 7 1019.1 1019.7 4.4
19/12:30am 4.0 1.5 3.7 98 0.1 WSW 6 11 3 6 1019.0 1019.6 4.4
19/12:00am 3.9 1.4 3.5 97 0.2 W 6 13 3 7 1018.6 1019.3 4.4
 
Date/Time
EST
Temp
°C
App
Temp
°C
Dew
Point
°C
Rel
Hum
%
Delta-T
°C
Wind Press
QNH
hPa
Press
MSL
hPa
Rain since
9am
mm
Dir  Spd
km/h
Gust
km/h
Spd
kts
Gust
kts
18/11:30pm 4.0 1.5 3.6 97 0.2 W 6 11 3 6 1018.4 1019.1 4.4
18/11:00pm 3.8 1.2 3.4 97 0.2 W 6 19 3 10 1018.3 1019.0 4.4
18/10:30pm 3.8 1.2 3.4 97 0.2 W 6 11 3 6 1018.1 1018.8 4.4
18/10:00pm 3.8 1.2 3.2 96 0.3 W 6 17 3 9 1017.9 1018.6 4.4
18/09:30pm 4.0 1.4 3.4 96 0.3 W 6 15 3 8 1017.5 1018.1 4.4
18/09:00pm 4.0 1.8 3.4 96 0.3 W 4 7 2 4 1017.2 1017.8 4.4
18/08:30pm 4.0 0.8 3.3 95 0.3 WSW 9 24 5 13 1016.9 1017.5 3.6
18/08:00pm 4.1 1.5 3.2 94 0.4 W 6 15 3 8 1016.3 1017.0 2.4
18/07:30pm 4.2 1.4 3.3 94 0.4 WSW 7 17 4 9 1016.0 1016.6 2.4
18/07:00pm 4.3 1.7 3.4 94 0.4 WSW 6 9 3 5 1015.3 1015.9 2.2
18/06:30pm 4.0 1.4 3.0 93 0.4 WNW 6 11 3 6 1015.0 1015.6 2.0
18/06:00pm 4.6 2.1 3.7 94 0.4 WSW 6 15 3 8 1014.1 1014.7 1.0
18/05:30pm 4.6 1.8 3.4 92 0.5 W 7 15 4 8 1013.5 1014.1 1.0
18/05:00pm 4.9 2.3 3.2 89 0.7 WNW 6 13 3 7 1013.3 1013.9 0.8
18/04:30pm 5.7 3.5 3.4 85 1.0 W 4 9 2 5 1012.8 1013.3 0.4
18/04:00pm 6.3 3.5 2.9 79 1.5 W 7 20 4 11 1012.4 1013.0 0.2
18/03:30pm 5.2 1.6 2.7 84 1.1 W 11 30 6 16 1011.8 1012.4 0.2
18/03:00pm 5.2 2.1 3.4 88 0.8 W 9 17 5 9 1011.4 1012.0 0.2
18/02:30pm 5.9 3.2 3.6 85 1.0 W 7 13 4 7 1010.9 1011.4 0.0
18/02:00pm 5.6 2.9 2.6 81 1.3 W 6 11 3 6 1010.3 1010.9 0.0
18/01:30pm 5.3 2.6 2.5 82 1.2 W 6 9 3 5 1010.1 1010.7 0.0
18/01:00pm 5.6 1.9 2.3 79 1.4 W 11 35 6 19 1009.6 1010.2 0.0
18/12:30pm 5.6 2.3 2.3 79 1.4 W 9 20 5 11 1009.5 1010.0 0.0
18/12:00pm 6.0 3.3 2.5 78 1.5 W 6 15 3 8 1009.4 1009.9 0.0
18/11:30am 5.5 2.8 2.7 82 1.2 WSW 6 20 3 11 1009.2 1009.7 0.0
18/11:00am 5.0 2.4 3.0 87 0.9 W 6 13 3 7 1009.0 1009.5 0.0
18/10:30am 5.1 2.3 2.1 81 1.2 W 6 11 3 6 1008.9 1009.4 0.0
18/10:00am 5.2 2.2 1.9 79 1.4 W 7 22 4 12 1008.3 1008.9 0.0
18/09:30am 4.8 1.8 2.0 82 1.2 W 7 13 4 7 1008.0 1008.6 0.0
18/09:00am 4.6 1.9 2.5 86 0.9 W 6 17 3 9 1007.6 1008.1 7.4
18/08:30am 4.2 1.5 2.4 88 0.7 W 6 15 3 8 1007.3 1007.8 7.4
18/08:00am 4.1 1.3 2.3 88 0.7 WNW 6 19 3 10 1006.7 1007.2 7.4
18/07:30am 4.0 1.2 2.0 87 0.8 W 6 13 3 7 1006.2 1006.7 7.4
18/07:00am 4.0 1.0 1.9 86 0.9 W 7 20 4 11 1005.8 1006.3 7.4
18/06:30am 4.0 1.2 2.0 87 0.8 WSW 6 22 3 12 1005.2 1005.7 7.4
18/06:00am 4.1 1.1 1.8 85 0.9 W 7 24 4 13 1004.7 1005.2 7.4
18/05:30am 4.1 1.7 2.0 86 0.9 WNW 4 13 2 7 1004.6 1005.0 7.4
18/05:00am 3.9 1.5 2.3 89 0.7 SW 4 9 2 5 1004.0 1004.5 7.4
18/04:30am 3.9 1.1 2.1 88 0.7 WNW 6 13 3 7 1003.8 1004.3 7.4
18/04:00am 3.9 1.0 2.4 90 0.6 WNW 7 20 4 11 1003.6 1004.1 7.4
18/03:30am 3.8 1.5 2.6 92 0.5 W 4 11 2 6 1003.5 1004.0 7.4
18/03:00am 3.9 1.0 2.7 92 0.5 W 7 15 4 8 1003.3 1003.8 7.4
18/02:30am 3.9 1.0 2.6 91 0.5 WNW 7 15 4 8 1003.4 1003.9 7.4
18/02:00am 4.0 1.4 3.0 93 0.4 WNW 6 17 3 9 1003.6 1004.1 7.4
18/01:30am 3.9 1.3 3.0 94 0.4 WNW 6 11 3 6 1003.4 1003.9 7.4
18/01:00am 4.0 1.2 3.1 94 0.4 WNW 7 15 4 8 1003.6 1004.1 7.2
18/12:30am 4.1 1.9 3.4 95 0.3 W 4 11 2 6 1003.9 1004.4 7.2
18/12:00am 4.0 1.4 3.3 95 0.3 WNW 6 13 3 7 1003.8 1004.3 7.2
 
Date/Time
EST
Temp
°C
App
Temp
°C
Dew
Point
°C
Rel
Hum
%
Delta-T
°C
Wind Press
QNH
hPa
Press
MSL
hPa
Rain since
9am
mm
Dir  Spd
km/h
Gust
km/h
Spd
kts
Gust
kts
17/11:30pm 3.8 1.2 3.2 96 0.3 WNW 6 13 3 7 1003.6 1004.1 7.2
17/11:00pm 3.8 1.2 3.2 96 0.3 WNW 6 15 3 8 1003.5 1004.0 7.2
17/10:30pm 3.8 1.2 3.2 96 0.3 WNW 6 11 3 6 1003.4 1003.9 7.2
17/10:00pm 3.8 1.6 3.2 96 0.3 WNW 4 7 2 4 1003.5 1004.0 7.2
17/09:30pm 4.1 1.4 3.7 97 0.2 NW 7 19 4 10 1003.4 1003.9 7.2
17/09:00pm 4.5 1.9 4.1 97 0.2 NW 7 17 4 9 1003.3 1003.8 7.2
17/08:30pm 4.6 2.0 4.0 96 0.3 NW 7 15 4 8 1002.9 1003.3 7.2
17/08:00pm 4.7 1.7 4.1 96 0.3 NW 9 15 5 8 1003.1 1003.6 7.2

Other Formats:

Comma delimited format used in spreadsheet applications
http://www.bom.gov.au/fwo/IDV60801/IDV60801.94872.axf

JavaScript Object Notation format (JSON) in row-major order
http://www.bom.gov.au/fwo/IDV60801/IDV60801.94872.json